createdAt,value
2018-08-12T00:02:55.539Z,39.20
2018-08-12T00:07:58.811Z,38.90
2018-08-12T00:13:02.052Z,38.90
2018-08-12T00:18:05.502Z,39.00
2018-08-12T00:23:08.723Z,39.00
2018-08-12T00:28:12.072Z,39.10
2018-08-12T00:33:15.316Z,39.10
2018-08-12T00:38:18.571Z,39.10
2018-08-12T00:43:21.829Z,39.10
2018-08-12T00:48:25.064Z,39.30
2018-08-12T00:53:28.332Z,38.90
2018-08-12T00:58:31.591Z,39.00
2018-08-12T01:03:34.808Z,39.20
2018-08-12T01:08:38.067Z,39.10
2018-08-12T01:13:41.338Z,39.10
2018-08-12T01:18:44.583Z,39.10
2018-08-12T01:23:47.827Z,38.90
2018-08-12T01:28:51.054Z,39.30
2018-08-12T01:33:54.267Z,39.10
2018-08-12T01:38:57.447Z,39.10
2018-08-12T01:44:00.636Z,39.10
2018-08-12T01:49:03.824Z,38.90
2018-08-12T01:54:07.028Z,39.00
2018-08-12T01:59:10.260Z,39.00
2018-08-12T02:04:13.460Z,39.00
2018-08-12T02:09:16.667Z,39.10
2018-08-12T02:14:19.893Z,40.00
2018-08-12T02:19:23.304Z,38.40
2018-08-12T02:24:26.505Z,39.20
2018-08-12T02:29:29.927Z,39.30
2018-08-12T02:34:33.475Z,39.10
2018-08-12T02:39:36.755Z,39.20
2018-08-12T02:44:39.947Z,39.20
2018-08-12T02:49:43.127Z,39.10
2018-08-12T02:54:46.311Z,39.30
2018-08-12T02:59:49.525Z,39.10
2018-08-12T03:04:52.692Z,39.10
2018-08-12T03:09:55.879Z,39.20
2018-08-12T03:14:59.059Z,39.70
2018-08-12T03:20:02.341Z,39.10
2018-08-12T03:25:06.756Z,39.30
2018-08-12T03:30:11.168Z,39.30
2018-08-12T03:35:14.283Z,39.30
2018-08-12T03:40:17.471Z,39.40
2018-08-12T03:45:20.658Z,39.60
2018-08-12T03:50:23.847Z,39.70
2018-08-12T03:55:27.076Z,39.40
2018-08-12T04:00:30.286Z,39.50
2018-08-12T04:05:33.503Z,39.60
2018-08-12T04:10:36.711Z,39.60
2018-08-12T04:15:39.991Z,39.60
2018-08-12T04:20:43.203Z,39.70
2018-08-12T04:25:46.410Z,39.80
2018-08-12T04:30:49.631Z,39.70
2018-08-12T04:35:52.859Z,39.80
2018-08-12T04:40:56.062Z,39.80
2018-08-12T04:45:59.327Z,39.90
2018-08-12T04:51:03.018Z,39.80
2018-08-12T04:56:06.318Z,39.90
2018-08-12T05:01:09.502Z,40.10
2018-08-12T05:06:12.719Z,40.10
2018-08-12T05:11:15.904Z,40.20
2018-08-12T05:16:19.315Z,40.10
2018-08-12T05:21:22.491Z,40.10
2018-08-12T05:26:25.679Z,40.20
2018-08-12T05:31:28.859Z,40.20
2018-08-12T05:36:32.091Z,40.50
2018-08-12T05:41:35.297Z,40.40
2018-08-12T05:46:38.459Z,40.80
2018-08-12T05:51:41.644Z,40.30
2018-08-12T05:56:44.860Z,40.30
2018-08-12T06:01:48.036Z,40.40
2018-08-12T06:06:51.210Z,40.30
2018-08-12T06:11:54.404Z,40.30
2018-08-12T06:16:57.586Z,40.30
2018-08-12T06:22:00.771Z,40.30
2018-08-12T06:27:03.959Z,40.30
2018-08-12T06:32:07.980Z,40.40
2018-08-12T06:37:11.415Z,40.30
2018-08-12T06:42:14.604Z,40.30
2018-08-12T06:47:17.851Z,40.20
2018-08-12T06:52:21.057Z,40.30
2018-08-12T06:57:24.295Z,40.20
2018-08-12T07:02:27.616Z,40.70
2018-08-12T07:07:30.827Z,40.10
2018-08-12T07:12:34.111Z,40.10
2018-08-12T07:17:37.343Z,40.00
2018-08-12T07:22:40.688Z,40.10
2018-08-12T07:27:44.191Z,40.00
2018-08-12T07:32:47.471Z,40.00
2018-08-12T07:37:50.631Z,39.30
2018-08-12T07:42:53.851Z,40.10
2018-08-12T07:47:57.056Z,40.00
2018-08-12T07:53:00.271Z,40.10
2018-08-12T07:58:03.496Z,40.00
2018-08-12T08:03:06.859Z,39.80
2018-08-12T08:08:10.055Z,39.50
2018-08-12T08:13:13.384Z,39.60
2018-08-12T08:18:16.567Z,39.40
2018-08-12T08:23:19.756Z,38.00
2018-08-12T08:28:22.999Z,37.90
2018-08-12T08:33:26.187Z,37.40
2018-08-12T08:38:29.392Z,37.90
2018-08-12T08:43:32.658Z,37.70
2018-08-12T08:48:36.108Z,39.30
2018-08-12T08:53:39.292Z,38.20
2018-08-12T08:58:42.542Z,38.00
2018-08-12T09:03:45.743Z,37.80
2018-08-12T09:08:49.376Z,37.90
2018-08-12T09:13:52.359Z,38.10
2018-08-12T09:18:55.608Z,38.00
2018-08-12T09:23:58.909Z,37.80
2018-08-12T09:29:02.239Z,38.30
2018-08-12T09:34:05.471Z,37.90
2018-08-12T09:39:10.394Z,38.20
2018-08-12T09:44:13.604Z,37.90
2018-08-12T09:49:16.814Z,37.70
2018-08-12T09:54:20.048Z,37.70
2018-08-12T09:59:23.280Z,37.70
2018-08-12T10:04:26.493Z,37.70
2018-08-12T10:09:30.357Z,37.60
2018-08-12T10:14:33.610Z,37.50
2018-08-12T10:19:36.827Z,37.30
2018-08-12T10:24:40.044Z,37.40
2018-08-12T10:29:43.267Z,37.40
2018-08-12T10:34:46.843Z,37.50
2018-08-12T10:39:50.055Z,37.50
2018-08-12T10:44:53.271Z,37.10
2018-08-12T10:49:56.475Z,37.10
2018-08-12T10:55:00.072Z,37.70
2018-08-12T11:00:03.323Z,37.50
2018-08-12T11:05:06.654Z,37.00
2018-08-12T11:10:10.555Z,36.80
2018-08-12T11:15:13.751Z,37.00
2018-08-12T11:20:16.974Z,36.00
2018-08-12T11:25:20.124Z,36.90
2018-08-12T11:30:23.287Z,36.50
2018-08-12T11:35:26.479Z,36.30
2018-08-12T11:40:29.681Z,36.40
2018-08-12T11:45:32.855Z,36.50
2018-08-12T11:50:36.047Z,34.90
2018-08-12T11:55:39.271Z,36.90
2018-08-12T12:00:42.455Z,36.90
2018-08-12T12:05:45.640Z,35.60
2018-08-12T12:10:48.828Z,35.70
2018-08-12T12:15:52.032Z,35.70
2018-08-12T12:20:55.220Z,35.90
2018-08-12T12:25:58.435Z,36.40
2018-08-12T12:31:01.643Z,35.80
2018-08-12T12:36:04.837Z,35.00
2018-08-12T12:41:08.060Z,34.80
2018-08-12T12:46:11.243Z,35.30
2018-08-12T12:51:14.440Z,35.20
2018-08-12T12:56:17.687Z,35.40
2018-08-12T13:01:20.895Z,35.00
2018-08-12T13:06:24.103Z,34.40
2018-08-12T13:11:27.346Z,33.80
2018-08-12T13:16:30.551Z,34.10
2018-08-12T13:21:33.772Z,33.70
2018-08-12T13:26:36.992Z,33.20
2018-08-12T13:31:40.227Z,35.20
2018-08-12T13:36:44.904Z,33.80
2018-08-12T13:41:49.696Z,33.10
2018-08-12T13:46:52.930Z,33.60
2018-08-12T13:51:57.388Z,33.80
2018-08-12T13:57:01.907Z,33.50
2018-08-12T14:02:06.104Z,32.60
2018-08-12T14:07:09.374Z,32.40
2018-08-12T14:12:12.481Z,32.60
2018-08-12T14:17:15.671Z,32.80
2018-08-12T14:22:18.855Z,32.90
2018-08-12T14:27:22.039Z,32.60
2018-08-12T14:32:25.271Z,33.80
2018-08-12T14:37:28.507Z,32.30
2018-08-12T14:42:31.672Z,32.40
2018-08-12T14:47:34.876Z,31.40
2018-08-12T14:52:38.056Z,31.20
2018-08-12T14:57:41.850Z,31.00
2018-08-12T15:02:46.061Z,31.60
2018-08-12T15:07:49.324Z,31.20
2018-08-12T15:12:52.523Z,31.20
2018-08-12T15:17:55.736Z,30.80
2018-08-12T15:22:59.003Z,31.50
2018-08-12T15:28:02.139Z,31.20
2018-08-12T15:33:05.367Z,31.30
2018-08-12T15:38:08.750Z,31.40
2018-08-12T15:43:11.955Z,30.70
2018-08-12T15:48:15.159Z,30.80
2018-08-12T15:53:18.375Z,30.20
2018-08-12T15:58:22.133Z,30.70
2018-08-12T16:03:25.379Z,30.60
2018-08-12T16:08:28.518Z,30.50
2018-08-12T16:13:31.714Z,30.80
2018-08-12T16:18:34.900Z,30.70
2018-08-12T16:23:38.163Z,30.40
2018-08-12T16:28:41.373Z,30.30
2018-08-12T16:33:44.594Z,31.00
2018-08-12T16:38:47.811Z,30.80
2018-08-12T16:43:51.024Z,31.00
2018-08-12T16:48:54.243Z,31.20
2018-08-12T16:53:57.459Z,31.00
2018-08-12T16:59:00.706Z,31.20
2018-08-12T17:04:04.001Z,31.10
2018-08-12T17:09:09.480Z,31.20
2018-08-12T17:14:12.706Z,30.90
2018-08-12T17:19:15.932Z,31.10
2018-08-12T17:24:19.145Z,31.00
2018-08-12T17:29:22.356Z,31.00
2018-08-12T17:34:25.564Z,31.20
2018-08-12T17:39:28.779Z,31.20
2018-08-12T17:44:31.985Z,30.80
2018-08-12T17:49:35.280Z,30.70
2018-08-12T17:54:38.492Z,30.50
2018-08-12T17:59:41.732Z,30.30
2018-08-12T18:04:44.944Z,30.60
2018-08-12T18:09:48.127Z,30.00
2018-08-12T18:14:51.355Z,29.90
2018-08-12T18:19:54.531Z,30.10
2018-08-12T18:24:57.726Z,30.00
2018-08-12T18:30:00.928Z,30.40
2018-08-12T18:35:04.904Z,30.20
2018-08-12T18:40:09.507Z,30.20
2018-08-12T18:45:12.691Z,30.30
2018-08-12T18:50:15.900Z,30.60
2018-08-12T18:55:19.148Z,30.60
2018-08-12T19:00:22.355Z,30.60
2018-08-12T19:05:25.571Z,30.70
2018-08-12T19:10:28.791Z,30.80
2018-08-12T19:15:32.010Z,30.90
2018-08-12T19:20:35.219Z,31.00
2018-08-12T19:25:38.439Z,31.30
2018-08-12T19:30:41.637Z,31.30
2018-08-12T19:35:44.839Z,31.30
2018-08-12T19:40:48.047Z,31.40
2018-08-12T19:45:51.328Z,31.50
2018-08-12T19:50:54.545Z,31.20
2018-08-12T19:55:57.807Z,31.40
2018-08-12T20:01:01.178Z,31.50
2018-08-12T20:06:04.390Z,31.50
2018-08-12T20:11:07.616Z,31.10
2018-08-12T20:16:11.097Z,31.00
2018-08-12T20:21:14.623Z,31.10
2018-08-12T20:26:17.843Z,31.20
2018-08-12T20:31:21.084Z,31.20
2018-08-12T20:36:24.539Z,31.40
2018-08-12T20:41:27.755Z,31.50
2018-08-12T20:46:30.967Z,31.50
2018-08-12T20:51:34.175Z,31.70
2018-08-12T20:56:37.388Z,31.70
2018-08-12T21:01:40.760Z,31.60
2018-08-12T21:06:43.946Z,31.80
2018-08-12T21:11:47.147Z,31.80
2018-08-12T21:16:50.328Z,32.00
2018-08-12T21:21:53.523Z,32.00
2018-08-12T21:26:56.715Z,32.20
2018-08-12T21:31:59.899Z,32.20
2018-08-12T21:37:03.098Z,32.30
2018-08-12T21:42:06.338Z,32.40
2018-08-12T21:47:09.534Z,32.40
2018-08-12T21:52:12.720Z,32.40
2018-08-12T21:57:15.926Z,32.50
2018-08-12T22:02:19.123Z,32.40
2018-08-12T22:07:22.604Z,32.60
2018-08-12T22:12:25.823Z,32.60
2018-08-12T22:17:29.056Z,32.60
2018-08-12T22:22:32.247Z,32.70
2018-08-12T22:27:35.426Z,32.80
2018-08-12T22:32:38.615Z,32.80
2018-08-12T22:37:42.039Z,32.90
2018-08-12T22:42:45.236Z,32.90
2018-08-12T22:47:48.419Z,33.00
2018-08-12T22:52:51.616Z,33.10
2018-08-12T22:57:54.847Z,33.20
2018-08-12T23:02:58.038Z,33.30
2018-08-12T23:08:07.183Z,33.40
2018-08-12T23:13:10.365Z,33.50
2018-08-12T23:18:13.555Z,33.60
2018-08-12T23:23:16.751Z,34.30
2018-08-12T23:28:19.950Z,33.80
2018-08-12T23:33:23.147Z,33.90
2018-08-12T23:38:26.344Z,33.90
2018-08-12T23:43:29.551Z,34.10
2018-08-12T23:48:32.783Z,34.20
2018-08-12T23:53:35.984Z,34.20
2018-08-12T23:58:39.188Z,34.30
